createdAt,value
2019-02-03T00:01:41.159Z,29.35
2019-02-03T00:04:07.441Z,33.33
2019-02-03T00:06:33.621Z,33.58
2019-02-03T00:08:59.871Z,31.52
2019-02-03T00:11:25.958Z,24.18
2019-02-03T00:13:52.132Z,30.30
2019-02-03T00:16:18.216Z,21.95
2019-02-03T00:18:45.030Z,29.50
2019-02-03T00:21:11.361Z,28.50
2019-02-03T00:23:37.584Z,22.20
2019-02-03T00:26:04.773Z,29.65
2019-02-03T00:28:30.956Z,27.05
2019-02-03T00:30:57.136Z,28.67
2019-02-03T00:33:23.444Z,24.90
2019-02-03T00:35:49.508Z,24.05
2019-02-03T00:38:23.231Z,25.05
2019-02-03T00:40:44.511Z,31.23
2019-02-03T00:43:10.699Z,29.37
2019-02-03T00:45:36.776Z,31.55
2019-02-03T00:48:03.344Z,25.00
2019-02-03T00:50:29.523Z,26.25
2019-02-03T00:52:55.587Z,30.43
2019-02-03T00:55:21.770Z,31.82
2019-02-03T00:57:47.949Z,27.30
2019-02-03T01:00:15.807Z,23.12
2019-02-03T01:02:42.095Z,27.13
2019-02-03T01:05:11.776Z,20.20
2019-02-03T01:07:52.404Z,22.30
2019-02-03T01:10:20.891Z,22.30
2019-02-03T01:12:47.155Z,21.60
2019-02-03T01:15:13.645Z,21.25
2019-02-03T01:17:39.711Z,20.72
2019-02-03T01:20:15.003Z,24.60
2019-02-03T01:22:41.069Z,20.10
2019-02-03T01:25:10.255Z,19.85
2019-02-03T01:27:36.635Z,18.30
2019-02-03T01:30:06.120Z,18.15
2019-02-03T01:32:32.190Z,19.05
2019-02-03T01:34:58.384Z,19.62
2019-02-03T01:37:24.454Z,21.50
2019-02-03T01:39:50.639Z,18.07
2019-02-03T01:42:16.807Z,22.82
2019-02-03T01:44:43.107Z,16.10
2019-02-03T01:47:09.271Z,15.18
2019-02-03T01:49:35.393Z,17.62
2019-02-03T01:52:01.555Z,17.02
2019-02-03T01:54:27.644Z,15.55
2019-02-03T01:56:53.809Z,15.13
2019-02-03T01:59:19.991Z,14.95
2019-02-03T02:01:46.464Z,16.52
2019-02-03T02:04:12.639Z,18.12
2019-02-03T02:06:38.718Z,14.78
2019-02-03T02:09:06.111Z,15.75
2019-02-03T02:11:32.187Z,14.68
2019-02-03T02:13:58.283Z,17.73
2019-02-03T02:16:24.452Z,16.80
2019-02-03T02:18:50.521Z,17.05
2019-02-03T02:21:16.691Z,15.98
2019-02-03T02:23:42.762Z,15.40
2019-02-03T02:26:08.853Z,17.25
2019-02-03T02:28:35.095Z,16.17
2019-02-03T02:31:01.188Z,17.27
2019-02-03T02:33:27.363Z,15.30
2019-02-03T02:35:53.536Z,17.32
2019-02-03T02:38:20.000Z,15.88
2019-02-03T02:40:46.075Z,15.13
2019-02-03T02:43:12.234Z,14.70
2019-02-03T02:45:38.312Z,15.85
2019-02-03T02:48:04.702Z,16.23
2019-02-03T02:50:36.889Z,14.70
2019-02-03T02:53:03.342Z,15.35
2019-02-03T02:55:29.946Z,16.90
2019-02-03T02:57:56.212Z,14.65
2019-02-03T03:00:24.002Z,15.15
2019-02-03T03:02:50.362Z,15.10
2019-02-03T03:05:16.745Z,13.62
2019-02-03T03:07:43.024Z,16.12
2019-02-03T03:10:29.014Z,15.55
2019-02-03T03:12:55.185Z,13.38
2019-02-03T03:15:21.368Z,15.18
2019-02-03T03:17:47.947Z,15.03
2019-02-03T03:20:16.138Z,14.40
2019-02-03T03:22:42.323Z,15.60
2019-02-03T03:25:12.026Z,15.85
2019-02-03T03:27:38.192Z,15.53
2019-02-03T03:30:13.835Z,16.37
2019-02-03T03:32:39.990Z,15.70
2019-02-03T03:35:06.269Z,15.63
2019-02-03T03:37:52.232Z,15.60
2019-02-03T03:40:20.540Z,16.23
2019-02-03T03:42:46.707Z,15.55
2019-02-03T03:45:13.069Z,14.73
2019-02-03T03:47:39.249Z,17.30
2019-02-03T03:50:08.518Z,15.08
2019-02-03T03:52:34.887Z,16.40
2019-02-03T03:55:01.125Z,16.35
2019-02-03T03:57:27.320Z,15.28
2019-02-03T03:59:53.481Z,15.95
2019-02-03T04:02:19.587Z,17.07
2019-02-03T04:04:45.759Z,15.60
2019-02-03T04:07:11.954Z,17.05
2019-02-03T04:09:38.444Z,15.28
2019-02-03T04:12:04.692Z,19.25
2019-02-03T04:14:30.847Z,19.50
2019-02-03T04:16:56.912Z,18.27
2019-02-03T04:19:23.003Z,17.62
2019-02-03T04:21:49.169Z,18.87
2019-02-03T04:24:15.263Z,17.30
2019-02-03T04:26:41.331Z,18.42
2019-02-03T04:29:07.420Z,17.02
2019-02-03T04:31:33.610Z,16.48
2019-02-03T04:34:00.965Z,16.75
2019-02-03T04:36:27.064Z,15.90
2019-02-03T04:38:58.467Z,16.20
2019-02-03T04:41:21.240Z,17.85
2019-02-03T04:43:47.407Z,15.60
2019-02-03T04:46:13.569Z,19.12
2019-02-03T04:48:39.618Z,20.10
2019-02-03T04:51:05.697Z,21.00
2019-02-03T04:53:31.875Z,19.73
2019-02-03T04:55:58.047Z,12.85
2019-02-03T04:58:24.148Z,16.27
2019-02-03T05:00:50.358Z,19.80
2019-02-03T05:03:16.840Z,18.27
2019-02-03T05:05:42.927Z,18.17
2019-02-03T05:08:09.000Z,18.75
2019-02-03T05:10:35.069Z,16.97
2019-02-03T05:13:01.138Z,17.73
2019-02-03T05:15:27.210Z,17.70
2019-02-03T05:17:53.406Z,17.23
2019-02-03T05:20:24.195Z,17.05
2019-02-03T05:22:50.275Z,17.67
2019-02-03T05:25:16.578Z,15.30
2019-02-03T05:27:42.851Z,16.75
2019-02-03T05:30:14.619Z,16.73
2019-02-03T05:32:41.609Z,14.65
2019-02-03T05:35:07.761Z,13.58
2019-02-03T05:37:34.152Z,12.35
2019-02-03T05:40:00.362Z,13.88
2019-02-03T05:42:26.492Z,15.00
2019-02-03T05:44:52.569Z,13.15
2019-02-03T05:47:18.743Z,16.23
2019-02-03T05:49:44.820Z,13.32
2019-02-03T05:52:10.907Z,13.72
2019-02-03T05:54:37.082Z,13.25
2019-02-03T05:57:03.356Z,16.00
2019-02-03T05:59:29.551Z,14.65
2019-02-03T06:01:55.632Z,12.85
2019-02-03T06:04:21.819Z,10.72
2019-02-03T06:06:47.999Z,14.13
2019-02-03T06:09:14.121Z,12.13
2019-02-03T06:11:40.314Z,11.68
2019-02-03T06:14:06.808Z,12.40
2019-02-03T06:16:32.876Z,12.13
2019-02-03T06:18:59.061Z,13.80
2019-02-03T06:21:25.228Z,15.43
2019-02-03T06:23:51.707Z,11.80
2019-02-03T06:26:17.784Z,9.58
2019-02-03T06:28:43.981Z,10.95
2019-02-03T06:31:13.972Z,10.00
2019-02-03T06:33:38.712Z,11.85
2019-02-03T06:36:04.995Z,10.25
2019-02-03T06:38:31.200Z,9.83
2019-02-03T06:40:57.387Z,7.60
2019-02-03T06:43:23.457Z,10.18
2019-02-03T06:45:51.539Z,10.25
2019-02-03T06:48:19.904Z,10.00
2019-02-03T06:50:46.100Z,8.70
2019-02-03T06:53:12.162Z,10.55
2019-02-03T06:55:38.264Z,10.35
2019-02-03T06:58:04.426Z,10.35
2019-02-03T07:00:30.595Z,10.20
2019-02-03T07:02:56.659Z,9.28
2019-02-03T07:05:22.793Z,10.13
2019-02-03T07:07:48.931Z,9.98
2019-02-03T07:10:15.143Z,9.03
2019-02-03T07:12:41.210Z,11.10
2019-02-03T07:15:08.995Z,8.98
2019-02-03T07:17:35.156Z,9.85
2019-02-03T07:20:01.420Z,9.35
2019-02-03T07:22:27.609Z,8.33
2019-02-03T07:24:53.972Z,10.93
2019-02-03T07:27:20.056Z,9.38
2019-02-03T07:29:46.239Z,10.13
2019-02-03T07:32:12.328Z,9.90
2019-02-03T07:34:38.487Z,8.65
2019-02-03T07:37:04.644Z,9.85
2019-02-03T07:39:30.728Z,9.58
2019-02-03T07:41:58.207Z,8.98
2019-02-03T07:44:24.269Z,10.20
2019-02-03T07:46:50.452Z,9.90
2019-02-03T07:49:16.528Z,9.08
2019-02-03T07:51:42.731Z,9.13
2019-02-03T07:54:09.012Z,8.63
2019-02-03T07:56:35.172Z,9.68
2019-02-03T07:59:01.540Z,10.98
2019-02-03T08:01:27.799Z,8.90
2019-02-03T08:03:54.096Z,8.80
2019-02-03T08:06:20.383Z,9.68
2019-02-03T08:08:46.859Z,8.85
2019-02-03T08:11:13.031Z,9.50
2019-02-03T08:13:39.231Z,8.13
2019-02-03T08:16:05.399Z,9.65
2019-02-03T08:18:31.574Z,7.83
2019-02-03T08:20:57.748Z,9.03
2019-02-03T08:23:24.016Z,8.80
2019-02-03T08:25:50.094Z,8.55
2019-02-03T08:28:16.273Z,7.80
2019-02-03T08:30:42.459Z,7.95
2019-02-03T08:33:08.661Z,6.12
2019-02-03T08:35:34.827Z,8.73
2019-02-03T08:38:01.436Z,8.30
2019-02-03T08:40:36.800Z,8.95
2019-02-03T08:42:56.132Z,8.10
2019-02-03T08:45:23.433Z,10.13
2019-02-03T08:47:50.236Z,9.48
2019-02-03T08:50:18.899Z,9.30
2019-02-03T08:52:45.087Z,8.65
2019-02-03T08:55:11.806Z,8.88
2019-02-03T08:57:37.897Z,9.15
2019-02-03T09:00:10.706Z,8.58
2019-02-03T09:02:36.811Z,7.28
2019-02-03T09:05:04.997Z,7.75
2019-02-03T09:07:31.091Z,8.55
2019-02-03T09:09:57.203Z,8.18
2019-02-03T09:12:23.404Z,8.90
2019-02-03T09:14:49.575Z,7.65
2019-02-03T09:17:15.754Z,7.97
2019-02-03T09:19:41.822Z,7.20
2019-02-03T09:22:08.271Z,6.22
2019-02-03T09:24:34.488Z,7.90
2019-02-03T09:27:00.681Z,6.10
2019-02-03T09:29:27.051Z,6.10
2019-02-03T09:31:53.144Z,6.65
2019-02-03T09:34:19.223Z,7.67
2019-02-03T09:36:45.291Z,7.55
2019-02-03T09:39:11.578Z,7.60
2019-02-03T09:41:37.658Z,6.58
2019-02-03T09:44:04.051Z,7.62
2019-02-03T09:46:30.124Z,5.70
2019-02-03T09:48:56.408Z,7.08
2019-02-03T09:51:22.474Z,5.87
2019-02-03T09:53:48.556Z,7.15
2019-02-03T09:56:14.915Z,6.53
2019-02-03T09:58:41.060Z,6.55
2019-02-03T10:01:07.239Z,6.72
2019-02-03T10:03:33.411Z,7.53
2019-02-03T10:05:59.470Z,5.95
2019-02-03T10:08:25.550Z,6.17
2019-02-03T10:10:51.823Z,5.05
2019-02-03T10:13:17.973Z,6.00
2019-02-03T10:15:44.173Z,5.90
2019-02-03T10:18:10.550Z,5.90
2019-02-03T10:20:36.725Z,6.35
2019-02-03T10:23:03.527Z,5.45
2019-02-03T10:25:29.990Z,5.97
2019-02-03T10:27:56.197Z,5.03
2019-02-03T10:30:23.265Z,6.53
2019-02-03T10:32:49.743Z,5.75
2019-02-03T10:35:23.455Z,6.35
2019-02-03T10:37:46.887Z,6.47
2019-02-03T10:40:16.285Z,6.15
2019-02-03T10:42:42.576Z,7.00
2019-02-03T10:45:14.317Z,5.67
2019-02-03T10:47:40.796Z,6.95
2019-02-03T10:50:10.702Z,7.08
2019-02-03T10:52:36.879Z,6.58
2019-02-03T10:55:06.352Z,6.03
2019-02-03T10:57:32.835Z,6.50
2019-02-03T10:59:58.999Z,5.85
2019-02-03T11:02:25.163Z,5.80
2019-02-03T11:04:51.360Z,5.75
2019-02-03T11:07:17.531Z,5.40
2019-02-03T11:09:43.618Z,4.90
2019-02-03T11:12:09.796Z,5.28
2019-02-03T11:14:35.984Z,5.78
2019-02-03T11:17:02.549Z,5.37
2019-02-03T11:19:28.723Z,5.03
2019-02-03T11:21:54.905Z,5.72
2019-02-03T11:24:21.062Z,6.37
2019-02-03T11:26:47.207Z,6.42
2019-02-03T11:29:13.391Z,6.20
2019-02-03T11:31:39.567Z,6.53
2019-02-03T11:34:05.831Z,6.45
2019-02-03T11:36:32.023Z,6.30
2019-02-03T11:38:58.489Z,5.65
2019-02-03T11:41:24.799Z,6.03
2019-02-03T11:43:51.000Z,5.10
2019-02-03T11:46:17.259Z,5.50
2019-02-03T11:48:43.513Z,5.25
2019-02-03T11:51:09.796Z,4.50
2019-02-03T11:53:35.989Z,6.03
2019-02-03T11:56:02.284Z,6.85
2019-02-03T11:58:28.974Z,6.62
2019-02-03T12:00:55.287Z,7.47
2019-02-03T12:03:21.568Z,6.95
2019-02-03T12:05:48.046Z,7.12
2019-02-03T12:08:14.160Z,6.25
2019-02-03T12:10:40.350Z,4.80
2019-02-03T12:13:09.268Z,6.55
2019-02-03T12:15:35.743Z,7.80
2019-02-03T12:18:01.936Z,8.53
2019-02-03T12:20:28.115Z,7.10
2019-02-03T12:22:54.392Z,7.62
2019-02-03T12:25:26.639Z,7.03
2019-02-03T12:27:52.806Z,9.35
2019-02-03T12:30:25.207Z,9.33
2019-02-03T12:32:51.497Z,10.70
2019-02-03T12:35:19.554Z,9.35
2019-02-03T12:37:46.085Z,7.70
2019-02-03T12:40:18.043Z,10.78
2019-02-03T12:42:44.328Z,9.53
2019-02-03T12:45:13.999Z,8.25
2019-02-03T12:47:40.292Z,7.58
2019-02-03T12:50:12.582Z,7.35
2019-02-03T12:52:38.659Z,8.65
2019-02-03T12:55:10.330Z,8.93
2019-02-03T12:57:36.433Z,8.48
2019-02-03T13:00:12.579Z,11.20
2019-02-03T13:02:38.759Z,11.97
2019-02-03T13:05:07.845Z,13.70
2019-02-03T13:07:34.027Z,12.45
2019-02-03T13:10:00.207Z,11.63
2019-02-03T13:12:27.723Z,12.95
2019-02-03T13:14:54.291Z,11.75
2019-02-03T13:17:20.463Z,11.00
2019-02-03T13:19:46.559Z,11.60
2019-02-03T13:22:12.663Z,13.68
2019-02-03T13:24:38.759Z,11.68
2019-02-03T13:27:04.925Z,12.60
2019-02-03T13:29:31.101Z,12.37
2019-02-03T13:31:57.715Z,9.95
2019-02-03T13:34:23.861Z,12.43
2019-02-03T13:36:50.027Z,11.68
2019-02-03T13:39:16.150Z,13.70
2019-02-03T13:41:42.339Z,13.75
2019-02-03T13:44:08.471Z,8.40
2019-02-03T13:46:34.672Z,11.90
2019-02-03T13:49:01.153Z,9.88
2019-02-03T13:51:27.320Z,12.33
2019-02-03T13:53:53.420Z,10.15
2019-02-03T13:56:19.642Z,9.20
2019-02-03T13:58:45.830Z,10.03
2019-02-03T14:01:11.968Z,9.73
2019-02-03T14:03:38.160Z,10.88
2019-02-03T14:06:04.674Z,11.75
2019-02-03T14:08:30.886Z,11.20
2019-02-03T14:10:57.042Z,12.05
2019-02-03T14:13:23.128Z,11.95
2019-02-03T14:15:49.246Z,11.03
2019-02-03T14:18:15.340Z,11.08
2019-02-03T14:20:41.408Z,7.87
2019-02-03T14:23:07.543Z,10.50
2019-02-03T14:25:33.836Z,10.23
2019-02-03T14:27:59.939Z,12.20
2019-02-03T14:30:40.489Z,10.60
2019-02-03T14:33:03.719Z,9.98
2019-02-03T14:35:32.773Z,6.22
2019-02-03T14:37:58.099Z,9.40
2019-02-03T14:40:24.623Z,11.15
2019-02-03T14:43:01.325Z,8.53
2019-02-03T14:45:26.428Z,8.73
2019-02-03T14:47:52.728Z,11.38
2019-02-03T14:50:20.951Z,11.73
2019-02-03T14:52:47.539Z,10.85
2019-02-03T14:55:29.318Z,10.28
2019-02-03T14:57:55.564Z,13.32
2019-02-03T15:00:30.292Z,11.83
2019-02-03T15:02:57.243Z,10.18
2019-02-03T15:05:23.624Z,9.33
2019-02-03T15:07:49.824Z,10.95
2019-02-03T15:10:16.206Z,10.32
2019-02-03T15:12:42.349Z,10.53
2019-02-03T15:15:12.133Z,12.03
2019-02-03T15:17:38.195Z,8.95
2019-02-03T15:20:08.087Z,11.10
2019-02-03T15:22:34.177Z,8.73
2019-02-03T15:25:00.292Z,9.35
2019-02-03T15:27:26.363Z,10.18
2019-02-03T15:29:52.444Z,10.43
2019-02-03T15:32:18.540Z,10.93
2019-02-03T15:34:44.704Z,12.33
2019-02-03T15:37:10.766Z,12.25
2019-02-03T15:39:36.839Z,12.23
2019-02-03T15:42:03.431Z,11.73
2019-02-03T15:44:29.682Z,9.38
2019-02-03T15:46:55.849Z,9.83
2019-02-03T15:49:21.972Z,7.30
2019-02-03T15:51:48.167Z,9.30
2019-02-03T15:54:14.259Z,9.90
2019-02-03T15:56:43.936Z,9.65
2019-02-03T15:59:10.107Z,7.75
2019-02-03T16:01:36.420Z,9.23
2019-02-03T16:04:02.887Z,9.50
2019-02-03T16:06:28.979Z,10.48
2019-02-03T16:08:55.159Z,9.18
2019-02-03T16:11:21.332Z,8.78
2019-02-03T16:13:47.757Z,9.80
2019-02-03T16:16:13.935Z,8.63
2019-02-03T16:18:40.116Z,10.38
2019-02-03T16:21:06.200Z,7.60
2019-02-03T16:23:32.359Z,8.95
2019-02-03T16:25:58.436Z,9.15
2019-02-03T16:28:24.631Z,9.15
2019-02-03T16:30:50.725Z,12.73
2019-02-03T16:33:16.884Z,10.68
2019-02-03T16:35:43.097Z,14.95
2019-02-03T16:38:22.073Z,10.18
2019-02-03T16:40:38.239Z,16.97
2019-02-03T16:43:04.571Z,16.62
2019-02-03T16:45:31.372Z,12.03
2019-02-03T16:47:59.455Z,10.40
2019-02-03T16:50:30.444Z,10.98
2019-02-03T16:52:58.017Z,10.50
2019-02-03T16:55:25.187Z,9.03
2019-02-03T16:57:51.460Z,7.50
2019-02-03T17:00:19.903Z,8.28
2019-02-03T17:02:46.191Z,9.13
2019-02-03T17:05:25.378Z,9.58
2019-02-03T17:07:43.288Z,9.90
2019-02-03T17:10:12.405Z,9.50
2019-02-03T17:12:38.562Z,6.70
2019-02-03T17:15:08.529Z,8.48
2019-02-03T17:17:34.723Z,10.75
2019-02-03T17:20:00.899Z,12.30
2019-02-03T17:22:27.278Z,8.40
2019-02-03T17:24:53.440Z,7.85
2019-02-03T17:27:19.529Z,7.40
2019-02-03T17:29:45.690Z,7.87
2019-02-03T17:32:11.762Z,12.75
2019-02-03T17:34:37.841Z,9.10
2019-02-03T17:37:04.019Z,8.65
2019-02-03T17:39:30.115Z,8.78
2019-02-03T17:41:56.487Z,9.95
2019-02-03T17:44:22.773Z,11.33
2019-02-03T17:46:48.930Z,9.75
2019-02-03T17:49:16.763Z,7.80
2019-02-03T17:51:42.995Z,8.58
2019-02-03T17:54:09.178Z,7.03
2019-02-03T17:56:35.334Z,9.63
2019-02-03T17:59:01.833Z,10.08
2019-02-03T18:01:27.978Z,8.08
2019-02-03T18:03:54.048Z,9.98
2019-02-03T18:06:20.127Z,9.53
2019-02-03T18:08:46.219Z,7.60
2019-02-03T18:11:12.324Z,8.43
2019-02-03T18:13:38.506Z,8.13
2019-02-03T18:16:04.691Z,7.00
2019-02-03T18:18:31.056Z,8.35
2019-02-03T18:20:57.244Z,9.25
2019-02-03T18:23:23.339Z,8.60
2019-02-03T18:25:49.720Z,14.90
2019-02-03T18:28:16.598Z,10.00
2019-02-03T18:30:42.786Z,12.55
2019-02-03T18:33:08.848Z,9.68
2019-02-03T18:35:35.072Z,10.18
2019-02-03T18:38:07.087Z,14.87
2019-02-03T18:40:33.273Z,9.95
2019-02-03T18:43:01.975Z,7.47
2019-02-03T18:45:27.359Z,5.40
2019-02-03T18:47:53.522Z,7.00
2019-02-03T18:50:23.166Z,7.65
2019-02-03T18:52:49.747Z,7.10
2019-02-03T18:55:18.711Z,8.55
2019-02-03T18:57:44.803Z,7.75
2019-02-03T19:00:20.056Z,10.23
2019-02-03T19:02:46.252Z,9.10
2019-02-03T19:05:15.718Z,9.85
2019-02-03T19:07:42.102Z,9.68
2019-02-03T19:10:14.330Z,7.83
2019-02-03T19:12:40.500Z,8.33
2019-02-03T19:15:08.783Z,9.60
2019-02-03T19:17:34.867Z,7.47
2019-02-03T19:20:00.945Z,9.90
2019-02-03T19:22:27.007Z,16.37
2019-02-03T19:24:53.220Z,8.73
2019-02-03T19:27:19.363Z,11.43
2019-02-03T19:29:45.432Z,10.32
2019-02-03T19:32:11.611Z,11.00
2019-02-03T19:34:37.675Z,6.65
2019-02-03T19:37:05.670Z,8.33
2019-02-03T19:39:31.935Z,9.05
2019-02-03T19:41:58.248Z,9.00
2019-02-03T19:44:24.380Z,9.08
2019-02-03T19:46:50.591Z,10.15
2019-02-03T19:49:16.735Z,11.00
2019-02-03T19:51:42.867Z,11.05
2019-02-03T19:54:09.056Z,9.85
2019-02-03T19:56:35.236Z,8.68
2019-02-03T19:59:01.328Z,8.80
2019-02-03T20:01:27.616Z,4.55
2019-02-03T20:03:53.707Z,10.82
2019-02-03T20:06:19.876Z,8.55
2019-02-03T20:08:45.977Z,8.78
2019-02-03T20:11:12.143Z,8.53
2019-02-03T20:13:38.276Z,8.60
2019-02-03T20:16:04.462Z,11.90
2019-02-03T20:18:31.059Z,14.60
2019-02-03T20:20:57.241Z,11.10
2019-02-03T20:23:23.321Z,10.53
2019-02-03T20:25:49.526Z,7.33
2019-02-03T20:28:15.738Z,10.30
2019-02-03T20:30:41.832Z,12.07
2019-02-03T20:33:08.078Z,9.55
2019-02-03T20:35:34.587Z,7.15
2019-02-03T20:38:01.041Z,14.78
2019-02-03T20:40:30.532Z,9.50
2019-02-03T20:42:56.801Z,9.50
2019-02-03T20:45:23.073Z,9.35
2019-02-03T20:47:49.271Z,8.08
2019-02-03T20:50:17.372Z,10.18
2019-02-03T20:52:43.626Z,6.97
2019-02-03T20:55:12.296Z,9.68
2019-02-03T20:57:38.392Z,11.00
2019-02-03T21:00:11.434Z,9.70
2019-02-03T21:02:37.626Z,9.35
2019-02-03T21:05:05.591Z,10.25
2019-02-03T21:07:31.677Z,9.73
2019-02-03T21:09:57.740Z,9.20
2019-02-03T21:12:24.237Z,11.95
2019-02-03T21:14:50.303Z,8.23
2019-02-03T21:17:16.407Z,8.80
2019-02-03T21:19:42.487Z,10.88
2019-02-03T21:22:08.643Z,11.70
2019-02-03T21:24:34.735Z,11.08
2019-02-03T21:27:00.821Z,9.58
2019-02-03T21:29:26.901Z,13.08
2019-02-03T21:31:53.244Z,7.80
2019-02-03T21:34:19.303Z,10.90
2019-02-03T21:36:45.379Z,11.78
2019-02-03T21:39:11.454Z,12.80
2019-02-03T21:41:37.639Z,11.73
2019-02-03T21:44:03.731Z,13.95
2019-02-03T21:46:29.909Z,10.05
2019-02-03T21:48:56.497Z,12.05
2019-02-03T21:51:22.656Z,10.15
2019-02-03T21:53:48.743Z,10.88
2019-02-03T21:56:14.803Z,10.78
2019-02-03T21:58:40.975Z,10.78
2019-02-03T22:01:07.054Z,9.85
2019-02-03T22:03:33.120Z,10.75
2019-02-03T22:05:59.185Z,10.15
2019-02-03T22:08:25.672Z,9.60
2019-02-03T22:10:51.850Z,12.43
2019-02-03T22:13:18.139Z,9.93
2019-02-03T22:15:55.048Z,10.20
2019-02-03T22:18:12.189Z,13.90
2019-02-03T22:20:38.371Z,9.23
2019-02-03T22:23:04.430Z,9.60
2019-02-03T22:25:30.924Z,9.70
2019-02-03T22:27:57.092Z,11.20
2019-02-03T22:30:29.420Z,9.98
2019-02-03T22:32:55.587Z,10.30
2019-02-03T22:35:21.807Z,11.33
2019-02-03T22:37:48.140Z,10.18
2019-02-03T22:40:19.402Z,12.82
2019-02-03T22:42:45.465Z,9.90
2019-02-03T22:45:19.899Z,9.08
2019-02-03T22:47:46.292Z,10.43
2019-02-03T22:50:18.607Z,10.65
2019-02-03T22:52:44.687Z,10.93
2019-02-03T22:55:12.351Z,8.10
2019-02-03T22:57:38.439Z,10.03
2019-02-03T23:00:52.717Z,11.38
2019-02-03T23:03:24.516Z,10.55
2019-02-03T23:05:52.206Z,9.25
2019-02-03T23:08:18.386Z,10.90
2019-02-03T23:10:44.583Z,9.58
2019-02-03T23:13:10.775Z,11.70
2019-02-03T23:15:37.430Z,8.25
2019-02-03T23:18:04.128Z,9.18
2019-02-03T23:20:30.383Z,13.13
2019-02-03T23:22:56.481Z,10.30
2019-02-03T23:25:22.560Z,9.15
2019-02-03T23:27:48.640Z,10.93
2019-02-03T23:30:15.833Z,10.95
2019-02-03T23:32:42.111Z,10.60
2019-02-03T23:35:08.303Z,11.75
2019-02-03T23:37:34.477Z,9.98
2019-02-03T23:40:00.543Z,11.00
2019-02-03T23:42:26.634Z,10.03
2019-02-03T23:44:52.802Z,14.03
2019-02-03T23:47:18.885Z,10.80
2019-02-03T23:49:44.943Z,11.63
2019-02-03T23:52:11.123Z,7.35
2019-02-03T23:54:37.300Z,12.05
2019-02-03T23:57:03.696Z,11.48
2019-02-03T23:59:29.872Z,9.03
